Time;durP1;ratioP1;P1;durP2;ratioP2;P2;SDS_P1;SDS_P2;PMS_P1;PMS_P2;Temp;Humidity;BMP_temperature;BMP_pressure;BME280_temperature;BME280_humidity;BME280_pressure;Samples;Min_cycle;Max_cycle;Signal;HPM_P1;HPM_P2
2023/07/22 00:01:42;;;;;;;4.50;4.03;;;14.00;99.90;;;;;;5069925;28;20222;-76
2023/07/22 00:04:09;;;;;;;4.70;4.30;;;13.90;99.90;;;;;;5069222;28;20766;-76
2023/07/22 00:06:36;;;;;;;5.70;4.90;;;13.90;99.90;;;;;;5052854;28;20197;-76
2023/07/22 00:09:03;;;;;;;6.63;5.43;;;13.80;99.90;;;;;;5063790;28;20250;-76
2023/07/22 00:11:30;;;;;;;6.80;6.20;;;13.90;99.90;;;;;;5069689;28;20213;-76
2023/07/22 00:13:58;;;;;;;6.70;6.20;;;13.80;99.90;;;;;;5063863;28;20641;-76
2023/07/22 00:16:25;;;;;;;6.30;5.70;;;13.80;99.90;;;;;;5059210;28;20202;-76
2023/07/22 00:18:53;;;;;;;6.30;5.07;;;13.90;99.90;;;;;;5062296;28;20199;-76
2023/07/22 00:21:20;;;;;;;5.40;4.90;;;13.90;99.90;;;;;;5059174;28;20195;-76
2023/07/22 00:23:47;;;;;;;5.00;4.17;;;13.90;99.90;;;;;;5062971;28;20218;-76
2023/07/22 00:26:13;;;;;;;4.50;4.10;;;13.90;99.90;;;;;;5059073;28;20768;-75
2023/07/22 00:28:41;;;;;;;4.27;3.87;;;14.00;99.90;;;;;;5068232;28;20215;-76
2023/07/22 00:31:09;;;;;;;4.37;3.60;;;14.00;99.90;;;;;;5068586;28;20575;-76
2023/07/22 00:33:36;;;;;;;4.37;3.97;;;14.00;99.90;;;;;;5056298;28;20705;-76
2023/07/22 00:36:04;;;;;;;4.40;3.80;;;14.00;99.90;;;;;;5068145;28;20198;-76
2023/07/22 00:38:30;;;;;;;4.20;3.70;;;14.00;99.90;;;;;;5057735;28;20207;-76
2023/07/22 00:40:58;;;;;;;4.60;4.03;;;14.10;99.90;;;;;;5061204;28;20201;-75
2023/07/22 00:43:26;;;;;;;4.23;3.83;;;14.10;99.90;;;;;;5064270;28;20222;-76
2023/07/22 00:45:53;;;;;;;4.20;3.90;;;14.10;99.90;;;;;;5067035;28;20231;-76
2023/07/22 00:48:21;;;;;;;4.17;3.63;;;14.10;99.90;;;;;;5067138;28;20360;-76
2023/07/22 00:50:48;;;;;;;4.63;3.67;;;14.00;99.90;;;;;;5055728;28;20192;-76
2023/07/22 00:53:15;;;;;;;4.30;3.90;;;13.90;99.90;;;;;;5058684;28;20697;-75
2023/07/22 00:55:42;;;;;;;4.60;4.10;;;13.80;99.90;;;;;;5065384;28;20198;-76
2023/07/22 00:58:09;;;;;;;4.40;3.97;;;13.70;99.90;;;;;;5058621;28;20589;-76
2023/07/22 01:00:36;;;;;;;4.33;3.93;;;13.60;99.90;;;;;;5068435;28;20196;-76
2023/07/22 01:03:04;;;;;;;4.37;3.97;;;13.60;99.90;;;;;;5064433;28;20206;-76
2023/07/22 01:05:32;;;;;;;4.13;3.73;;;13.60;99.90;;;;;;5067897;28;20252;-76
2023/07/22 01:07:59;;;;;;;4.97;4.47;;;13.50;99.90;;;;;;5052771;28;20214;-76
2023/07/22 01:10:26;;;;;;;7.30;6.70;;;13.40;99.90;;;;;;5062128;28;20252;-76
2023/07/22 01:12:53;;;;;;;5.20;4.27;;;13.40;99.90;;;;;;5047740;28;20198;-76
2023/07/22 01:15:21;;;;;;;4.90;4.40;;;13.40;99.90;;;;;;5064808;28;20223;-76
2023/07/22 01:17:48;;;;;;;4.90;4.33;;;13.40;99.90;;;;;;5057634;28;20199;-76
2023/07/22 01:20:18;;;;;;;6.70;6.17;;;13.40;99.90;;;;;;5064127;28;20199;-76
2023/07/22 01:22:52;;;;;;;7.03;6.43;;;13.40;99.90;;;;;;5054542;28;20205;-76
2023/07/22 01:25:21;;;;;;;7.10;6.50;;;13.40;99.90;;;;;;5068100;28;20229;-76
2023/07/22 01:27:49;;;;;;;4.43;4.03;;;13.50;99.90;;;;;;5065479;28;20218;-76
2023/07/22 01:30:15;;;;;;;4.27;3.93;;;13.50;99.90;;;;;;5060220;28;20225;-76
2023/07/22 01:32:42;;;;;;;4.17;3.77;;;13.50;99.90;;;;;;5064403;28;20214;-76
2023/07/22 01:35:10;;;;;;;4.70;4.13;;;13.50;99.90;;;;;;5058627;28;20274;-76
2023/07/22 01:37:36;;;;;;;4.40;4.00;;;13.60;99.90;;;;;;5038153;28;20218;-76
2023/07/22 01:40:11;;;;;;;4.90;4.40;;;13.60;99.90;;;;;;5041521;28;20294;-76
2023/07/22 01:42:38;;;;;;;4.40;4.03;;;13.50;99.90;;;;;;5043242;28;20757;-76
2023/07/22 01:45:07;;;;;;;5.03;4.53;;;13.50;99.90;;;;;;5047497;28;20281;-76
2023/07/22 01:47:35;;;;;;;5.20;4.40;;;13.50;99.90;;;;;;5050851;28;20198;-76
2023/07/22 01:50:02;;;;;;;5.40;4.10;;;13.50;99.90;;;;;;5046192;28;20303;-76
2023/07/22 01:52:29;;;;;;;6.90;6.30;;;13.50;99.90;;;;;;5063943;28;20203;-76
2023/07/22 01:54:55;;;;;;;6.60;6.00;;;13.30;99.90;;;;;;5067068;28;20218;-76
2023/07/22 01:57:24;;;;;;;5.50;4.87;;;13.30;99.90;;;;;;5067937;28;20286;-76
2023/07/22 01:59:50;;;;;;;6.23;5.63;;;13.30;99.90;;;;;;5063800;28;20205;-76
2023/07/22 02:02:17;;;;;;;5.83;5.00;;;13.30;99.90;;;;;;5055277;28;20579;-75
2023/07/22 02:04:44;;;;;;;5.80;5.00;;;13.30;99.90;;;;;;5064021;28;20229;-76
2023/07/22 02:07:11;;;;;;;5.33;4.83;;;13.20;99.90;;;;;;5057570;28;20207;-76
2023/07/22 02:09:38;;;;;;;4.83;4.40;;;13.20;99.90;;;;;;5059374;28;20219;-76
2023/07/22 02:12:06;;;;;;;5.23;4.33;;;13.20;99.90;;;;;;5064501;28;20259;-76
2023/07/22 02:14:34;;;;;;;7.40;6.70;;;13.10;99.90;;;;;;5065083;28;20238;-76
2023/07/22 02:17:01;;;;;;;3.70;3.20;;;13.10;99.90;;;;;;5045391;28;20616;-76
2023/07/22 02:19:28;;;;;;;3.90;3.03;;;13.00;99.90;;;;;;5057390;28;20195;-76
2023/07/22 02:21:54;;;;;;;3.53;2.90;;;13.10;99.90;;;;;;5066521;28;20284;-76
2023/07/22 02:24:21;;;;;;;4.40;3.47;;;13.10;99.90;;;;;;5057972;28;20226;-76
2023/07/22 02:26:48;;;;;;;4.80;3.20;;;13.10;99.90;;;;;;5063081;28;20198;-76
2023/07/22 02:29:15;;;;;;;5.50;5.07;;;13.10;99.90;;;;;;5063312;28;20211;-76
2023/07/22 02:31:43;;;;;;;6.30;5.80;;;13.10;99.90;;;;;;5060015;28;20671;-76
2023/07/22 02:34:10;;;;;;;7.07;6.47;;;13.10;99.90;;;;;;5063287;28;20226;-76
2023/07/22 02:36:37;;;;;;;4.23;3.40;;;13.10;99.90;;;;;;5068884;28;20225;-76
2023/07/22 02:39:04;;;;;;;4.33;3.27;;;13.10;99.90;;;;;;5065182;28;20190;-76
2023/07/22 02:41:31;;;;;;;3.70;3.37;;;13.10;99.90;;;;;;5064663;28;20207;-76
2023/07/22 02:43:58;;;;;;;4.13;3.50;;;13.10;99.90;;;;;;5062029;28;20217;-76
2023/07/22 02:46:25;;;;;;;5.20;3.30;;;13.10;99.90;;;;;;5061264;28;20194;-77
2023/07/22 02:48:53;;;;;;;3.90;3.03;;;13.10;99.90;;;;;;5062210;28;20238;-76
2023/07/22 02:51:20;;;;;;;4.50;3.67;;;13.10;99.90;;;;;;5060494;28;20195;-75
2023/07/22 02:53:47;;;;;;;3.73;3.20;;;13.10;99.90;;;;;;5051743;28;20217;-79
2023/07/22 02:56:14;;;;;;;4.63;3.13;;;13.10;99.90;;;;;;5071495;28;20198;-78
2023/07/22 02:58:43;;;;;;;4.87;3.20;;;13.10;99.90;;;;;;5070555;28;20197;-79
2023/07/22 03:01:10;;;;;;;4.57;3.70;;;13.00;99.90;;;;;;5053491;28;20223;-78
2023/07/22 03:03:39;;;;;;;5.13;4.00;;;13.00;99.90;;;;;;5043378;28;20215;-78
2023/07/22 03:06:09;;;;;;;3.90;3.17;;;13.00;99.90;;;;;;5048013;28;20225;-78
2023/07/22 03:08:36;;;;;;;4.70;3.67;;;13.00;99.90;;;;;;5052075;28;20301;-78
2023/07/22 03:11:03;;;;;;;4.27;3.67;;;12.90;99.90;;;;;;5047659;28;20219;-78
2023/07/22 03:13:30;;;;;;;5.60;4.00;;;12.90;99.90;;;;;;5048573;28;20238;-77
2023/07/22 03:15:57;;;;;;;4.23;3.73;;;12.90;99.90;;;;;;5043725;28;20705;-77
2023/07/22 03:18:24;;;;;;;4.83;3.90;;;12.90;99.90;;;;;;5049184;28;20206;-77
2023/07/22 03:20:51;;;;;;;4.60;3.37;;;12.90;99.90;;;;;;5046226;28;20681;-78
2023/07/22 03:23:20;;;;;;;5.47;3.67;;;12.90;99.90;;;;;;5053026;28;20210;-78
2023/07/22 03:25:47;;;;;;;4.57;3.90;;;12.90;99.90;;;;;;5050622;28;20234;-78
2023/07/22 03:28:14;;;;;;;6.10;3.57;;;12.90;99.90;;;;;;5046700;28;20195;-78
2023/07/22 03:30:41;;;;;;;4.43;3.60;;;12.80;99.90;;;;;;5046117;28;20199;-78
2023/07/22 03:33:08;;;;;;;6.03;5.43;;;12.80;99.90;;;;;;5048392;28;20256;-78
2023/07/22 03:35:34;;;;;;;4.00;3.23;;;12.70;99.90;;;;;;5052425;28;20294;-77
2023/07/22 03:38:01;;;;;;;3.73;3.10;;;12.80;99.90;;;;;;5054261;28;20226;-78
2023/07/22 03:40:30;;;;;;;5.57;3.67;;;12.80;99.90;;;;;;5046146;28;20299;-78
2023/07/22 03:42:58;;;;;;;4.50;3.67;;;12.70;99.90;;;;;;5054499;28;20199;-77
2023/07/22 03:45:25;;;;;;;6.40;5.80;;;12.70;99.90;;;;;;5055366;28;20194;-77
2023/07/22 03:47:54;;;;;;;3.87;3.47;;;12.70;99.90;;;;;;5051971;28;20257;-78
2023/07/22 03:50:21;;;;;;;3.67;3.10;;;12.70;99.90;;;;;;5055970;28;20223;-78
2023/07/22 03:52:47;;;;;;;5.40;4.20;;;12.70;99.90;;;;;;5045758;28;20233;-78
2023/07/22 03:55:14;;;;;;;4.27;3.67;;;12.80;99.90;;;;;;5055090;28;20709;-78
2023/07/22 03:57:43;;;;;;;5.07;3.43;;;12.80;99.90;;;;;;5048468;28;20228;-78
2023/07/22 04:00:10;;;;;;;3.77;3.20;;;12.80;99.90;;;;;;5044949;28;20194;-78
2023/07/22 04:02:41;;;;;;;4.23;3.50;;;12.90;99.90;;;;;;5046780;28;20272;-77
2023/07/22 04:05:08;;;;;;;4.63;3.50;;;12.90;99.90;;;;;;5038171;28;20588;-76
2023/07/22 04:07:35;;;;;;;4.30;3.30;;;12.90;99.90;;;;;;5040436;28;20218;-77
2023/07/22 04:10:03;;;;;;;4.60;3.20;;;12.90;99.90;;;;;;5036938;28;20227;-77
2023/07/22 04:12:30;;;;;;;4.13;3.20;;;12.90;99.90;;;;;;5047878;28;20271;-77
2023/07/22 04:14:58;;;;;;;4.87;3.30;;;12.90;99.90;;;;;;5039040;28;20234;-77
2023/07/22 04:17:28;;;;;;;4.17;3.73;;;12.90;99.90;;;;;;5049516;28;20198;-79
2023/07/22 04:19:55;;;;;;;4.37;3.10;;;13.00;99.90;;;;;;5045522;28;20233;-78
2023/07/22 04:22:23;;;;;;;3.70;3.17;;;13.00;99.90;;;;;;5035184;28;20199;-75
2023/07/22 04:24:50;;;;;;;4.43;3.57;;;13.00;99.90;;;;;;5038407;28;20228;-77
2023/07/22 04:27:17;;;;;;;4.00;2.93;;;13.00;99.90;;;;;;5033596;28;20191;-75
2023/07/22 04:29:44;;;;;;;5.57;3.40;;;13.00;99.90;;;;;;5039085;28;20254;-75
2023/07/22 04:32:12;;;;;;;5.70;3.30;;;13.10;99.90;;;;;;5033434;28;20893;-75
2023/07/22 04:34:39;;;;;;;3.57;3.07;;;13.10;99.90;;;;;;5045436;28;20223;-76
2023/07/22 04:37:06;;;;;;;4.43;3.17;;;13.10;99.90;;;;;;5040504;28;20230;-75
2023/07/22 04:39:34;;;;;;;3.47;3.10;;;13.20;99.90;;;;;;5038600;28;20191;-75
2023/07/22 04:42:00;;;;;;;4.70;4.20;;;13.30;99.90;;;;;;5033319;28;20192;-76
2023/07/22 04:44:28;;;;;;;6.90;6.30;;;13.40;99.90;;;;;;5038473;28;20211;-76
2023/07/22 04:46:55;;;;;;;4.47;4.07;;;13.50;99.90;;;;;;5033117;28;20191;-75
2023/07/22 04:49:23;;;;;;;3.30;2.83;;;13.60;99.90;;;;;;5037030;28;20223;-75
2023/07/22 04:51:50;;;;;;;5.47;4.97;;;13.70;99.90;;;;;;5040519;28;20207;-75
2023/07/22 04:54:17;;;;;;;5.50;4.53;;;13.80;99.90;;;;;;5041261;28;20699;-77
2023/07/22 04:56:44;;;;;;;4.97;4.57;;;13.90;99.90;;;;;;5049408;28;20204;-78
2023/07/22 04:59:13;;;;;;;4.80;4.30;;;14.10;99.90;;;;;;5039968;28;20682;-79
2023/07/22 05:01:40;;;;;;;5.77;5.33;;;14.20;99.90;;;;;;5043157;28;20272;-79
2023/07/22 05:04:07;;;;;;;3.20;2.90;;;14.40;99.90;;;;;;5041696;28;20217;-81
2023/07/22 05:06:35;;;;;;;4.27;3.73;;;14.50;99.90;;;;;;5045462;28;20206;-79
2023/07/22 05:09:03;;;;;;;3.70;3.00;;;14.70;99.90;;;;;;5039940;28;20246;-80
2023/07/22 05:11:30;;;;;;;5.30;4.90;;;14.80;99.90;;;;;;5040403;28;20672;-79
2023/07/22 05:13:57;;;;;;;4.60;4.20;;;14.90;99.90;;;;;;5035533;28;20616;-79
2023/07/22 05:16:23;;;;;;;4.80;4.40;;;15.00;99.90;;;;;;5038991;28;20206;-78
2023/07/22 05:18:50;;;;;;;3.83;3.40;;;15.10;99.90;;;;;;5041196;28;20257;-78
2023/07/22 05:21:17;;;;;;;4.47;4.07;;;15.20;99.90;;;;;;5035005;28;20195;-78
2023/07/22 05:23:45;;;;;;;5.47;4.40;;;15.30;99.90;;;;;;5041224;28;20235;-79
2023/07/22 05:26:12;;;;;;;4.13;3.27;;;15.40;99.90;;;;;;5042269;28;20252;-79
2023/07/22 05:28:39;;;;;;;3.83;3.43;;;15.60;99.90;;;;;;5042880;28;20656;-79
2023/07/22 05:31:06;;;;;;;4.93;4.40;;;15.70;99.90;;;;;;5045169;28;20261;-79
2023/07/22 05:33:33;;;;;;;4.50;4.10;;;15.80;99.90;;;;;;5048288;28;20215;-79
2023/07/22 05:36:00;;;;;;;6.30;5.80;;;16.00;99.90;;;;;;5051607;28;20231;-79
2023/07/22 05:38:26;;;;;;;5.60;5.10;;;16.10;99.90;;;;;;5035656;28;20261;-79
2023/07/22 05:40:55;;;;;;;6.37;5.77;;;16.20;99.90;;;;;;5040086;28;20191;-78
2023/07/22 05:43:22;;;;;;;5.40;4.90;;;16.30;99.90;;;;;;5042847;28;20724;-79
2023/07/22 05:45:49;;;;;;;5.53;5.13;;;16.40;99.90;;;;;;5052539;28;20200;-79
2023/07/22 05:48:15;;;;;;;3.47;2.80;;;16.50;99.90;;;;;;5040051;28;20580;-78
2023/07/22 05:50:42;;;;;;;3.43;3.13;;;16.70;99.90;;;;;;5043822;28;20293;-79
2023/07/22 05:53:09;;;;;;;4.10;3.73;;;16.90;99.90;;;;;;5043889;28;20666;-79
2023/07/22 05:55:42;;;;;;;4.70;4.30;;;17.20;99.90;;;;;;5044967;28;20267;-81
2023/07/22 05:58:17;;;;;;;5.47;5.07;;;17.80;99.90;;;;;;5039853;28;20203;-78
2023/07/22 06:00:44;;;;;;;5.47;5.07;;;18.30;99.90;;;;;;5048176;28;20202;-79
2023/07/22 06:03:11;;;;;;;6.10;5.50;;;18.90;99.90;;;;;;5046424;28;20293;-78
2023/07/22 06:05:38;;;;;;;5.40;4.90;;;19.30;99.90;;;;;;5050272;28;20225;-79
2023/07/22 06:08:05;;;;;;;5.33;4.50;;;19.40;99.90;;;;;;5034596;28;20241;-78
2023/07/22 06:10:32;;;;;;;3.87;3.47;;;19.60;99.90;;;;;;5046651;28;20215;-78
2023/07/22 06:12:59;;;;;;;6.40;5.80;;;19.40;99.90;;;;;;5051262;28;20242;-82
2023/07/22 06:15:27;;;;;;;6.33;5.90;;;19.30;99.90;;;;;;5050089;28;20202;-79
2023/07/22 06:17:54;;;;;;;4.97;4.30;;;19.60;99.90;;;;;;5044492;28;20260;-78
2023/07/22 06:20:21;;;;;;;3.53;3.20;;;19.90;99.90;;;;;;5044868;28;20188;-78
2023/07/22 06:22:50;;;;;;;4.47;4.07;;;20.10;99.90;;;;;;5051020;28;20206;-78
2023/07/22 06:25:17;;;;;;;6.30;5.80;;;19.90;99.90;;;;;;5047356;28;20215;-78
2023/07/22 06:27:44;;;;;;;5.50;5.10;;;19.90;99.90;;;;;;5043400;28;20682;-79
2023/07/22 06:30:11;;;;;;;4.10;3.00;;;19.80;99.90;;;;;;5048060;28;20218;-79
2023/07/22 06:32:41;;;;;;;4.60;4.20;;;19.90;99.90;;;;;;5048838;28;20199;-84
2023/07/22 06:35:08;;;;;;;6.60;6.10;;;20.10;99.90;;;;;;5050706;28;20564;-80
2023/07/22 06:37:35;;;;;;;5.63;3.80;;;20.60;99.90;;;;;;5042854;28;20191;-81
2023/07/22 06:40:04;;;;;;;4.53;4.13;;;21.20;99.90;;;;;;5049180;28;20241;-84
2023/07/22 06:42:31;;;;;;;3.53;3.27;;;21.80;99.90;;;;;;5048013;28;20244;-82
2023/07/22 06:44:58;;;;;;;6.17;5.77;;;22.40;99.90;;;;;;5036309;28;20274;-79
2023/07/22 06:47:24;;;;;;;4.83;4.40;;;22.80;99.90;;;;;;5044814;28;20199;-84
2023/07/22 06:49:53;;;;;;;6.40;5.90;;;22.90;99.90;;;;;;5038166;28;20235;-79
2023/07/22 06:52:19;;;;;;;6.33;5.60;;;23.30;99.90;;;;;;5038410;28;20206;-79
2023/07/22 06:54:46;;;;;;;7.03;6.43;;;23.60;99.90;;;;;;5042808;28;20219;-81
2023/07/22 06:57:13;;;;;;;6.20;5.70;;;23.90;99.90;;;;;;5038706;28;20195;-76
2023/07/22 06:59:40;;;;;;;5.77;5.37;;;24.30;99.90;;;;;;5037613;28;20199;-75
2023/07/22 07:02:07;;;;;;;6.03;5.63;;;24.30;99.90;;;;;;5031888;28;20254;-76
2023/07/22 07:04:34;;;;;;;3.47;2.60;;;24.30;99.90;;;;;;5036657;28;20778;-76
2023/07/22 07:07:02;;;;;;;3.40;3.10;;;24.30;99.90;;;;;;5038725;28;20219;-76
2023/07/22 07:09:29;;;;;;;5.10;4.70;;;24.40;99.90;;;;;;5036934;28;20195;-76
2023/07/22 07:11:56;;;;;;;5.60;5.10;;;24.60;99.90;;;;;;5042564;28;20274;-76
2023/07/22 07:14:24;;;;;;;5.87;5.37;;;24.80;99.90;;;;;;5042733;28;20231;-76
2023/07/22 07:16:51;;;;;;;4.13;3.83;;;25.10;99.90;;;;;;5037737;28;20215;-76
2023/07/22 07:19:17;;;;;;;6.03;5.63;;;25.20;99.90;;;;;;5033720;28;20657;-76
2023/07/22 07:21:44;;;;;;;5.67;5.27;;;25.40;99.90;;;;;;5034577;28;20633;-76
2023/07/22 07:24:12;;;;;;;2.60;2.40;;;25.40;99.90;;;;;;5046347;28;20211;-76
2023/07/22 07:26:39;;;;;;;3.53;2.73;;;25.70;99.90;;;;;;5040688;28;20233;-76
2023/07/22 07:29:06;;;;;;;6.03;5.53;;;25.80;99.90;;;;;;5041529;28;20192;-81
2023/07/22 07:31:33;;;;;;;5.97;5.47;;;25.90;99.90;;;;;;5050850;28;20211;-81
2023/07/22 07:33:59;;;;;;;5.60;5.10;;;26.30;99.90;;;;;;5045584;28;20222;-81
2023/07/22 07:36:26;;;;;;;5.80;5.17;;;26.60;99.90;;;;;;5036133;28;20197;-81
2023/07/22 07:38:53;;;;;;;3.77;2.80;;;26.80;99.90;;;;;;5039470;28;20215;-80
2023/07/22 07:41:22;;;;;;;5.43;4.87;;;26.70;99.90;;;;;;5045496;28;20204;-81
2023/07/22 07:43:49;;;;;;;2.93;2.70;;;26.90;99.90;;;;;;5042888;28;20242;-79
2023/07/22 07:46:21;;;;;;;3.70;3.07;;;27.10;99.90;;;;;;5033043;28;20208;-79
2023/07/22 07:48:49;;;;;;;6.67;2.80;;;27.20;99.90;;;;;;5032465;28;20677;-82
2023/07/22 07:51:17;;;;;;;4.10;3.70;;;27.40;99.90;;;;;;5038082;28;20713;-83
2023/07/22 07:53:46;;;;;;;6.87;5.73;;;27.30;99.90;;;;;;5041144;28;20219;-77
2023/07/22 07:56:14;;;;;;;5.43;5.03;;;27.40;99.90;;;;;;5050891;28;20199;-77
2023/07/22 07:58:43;;;;;;;5.53;5.00;;;27.40;99.90;;;;;;5032582;28;20227;-76
2023/07/22 08:01:10;;;;;;;3.23;2.93;;;27.70;99.90;;;;;;5038858;28;20294;-78
2023/07/22 08:03:38;;;;;;;3.47;2.47;;;27.70;99.90;;;;;;5035007;28;20215;-79
2023/07/22 08:06:06;;;;;;;2.80;2.50;;;28.00;99.90;;;;;;5045086;28;20438;-77
2023/07/22 08:08:33;;;;;;;3.47;2.37;;;27.90;99.00;;;;;;5039306;28;20692;-77
2023/07/22 08:11:01;;;;;;;2.90;2.60;;;27.90;99.90;;;;;;5035561;28;20265;-77
2023/07/22 08:13:29;;;;;;;3.03;2.83;;;28.20;99.20;;;;;;5035615;28;20220;-77
2023/07/22 08:15:58;;;;;;;2.40;2.20;;;28.40;98.80;;;;;;5035208;28;20199;-77
2023/07/22 08:18:24;;;;;;;5.20;4.80;;;28.20;98.40;;;;;;5035645;28;20591;-77
2023/07/22 08:20:52;;;;;;;3.70;3.40;;;28.20;98.90;;;;;;5041412;28;20187;-77
2023/07/22 08:23:19;;;;;;;4.70;4.20;;;28.20;98.20;;;;;;5035683;28;20287;-77
2023/07/22 08:25:46;;;;;;;5.00;4.60;;;28.00;96.80;;;;;;5035833;28;20215;-77
2023/07/22 08:28:13;;;;;;;3.80;3.50;;;28.20;96.80;;;;;;5035068;28;20208;-77
2023/07/22 08:30:40;;;;;;;2.37;2.07;;;28.30;97.30;;;;;;5035956;28;20208;-76
2023/07/22 08:33:08;;;;;;;2.40;2.20;;;28.40;97.10;;;;;;5037724;28;20195;-75
2023/07/22 08:35:36;;;;;;;2.60;2.40;;;28.60;96.60;;;;;;5036040;28;20568;-77
2023/07/22 08:38:03;;;;;;;2.80;2.47;;;28.80;95.30;;;;;;5035823;28;20195;-77
2023/07/22 08:40:35;;;;;;;2.53;2.20;;;28.90;94.80;;;;;;5035867;28;20248;-77
2023/07/22 08:43:03;;;;;;;2.57;2.37;;;29.00;95.10;;;;;;5034723;28;20591;-77
2023/07/22 08:45:34;;;;;;;4.50;4.17;;;29.30;94.60;;;;;;5035741;28;20195;-77
2023/07/22 08:48:07;;;;;;;4.13;3.83;;;29.40;94.20;;;;;;5039668;28;20198;-77
2023/07/22 08:50:42;;;;;;;4.43;4.10;;;29.40;93.30;;;;;;5034441;28;20216;-77
2023/07/22 08:53:09;;;;;;;4.33;3.93;;;29.30;92.60;;;;;;5044081;28;20199;-78
2023/07/22 08:55:36;;;;;;;4.73;4.43;;;29.30;92.00;;;;;;5045327;28;20224;-77
2023/07/22 08:58:04;;;;;;;6.20;4.57;;;29.30;91.70;;;;;;5037451;28;20203;-77
2023/07/22 09:00:32;;;;;;;5.20;4.80;;;29.00;92.30;;;;;;5033389;28;20192;-77
2023/07/22 09:03:00;;;;;;;5.27;4.87;;;29.00;93.10;;;;;;5035692;28;20206;-77
2023/07/22 09:05:27;;;;;;;3.67;3.37;;;29.00;92.80;;;;;;5036322;28;20188;-77
2023/07/22 09:07:56;;;;;;;3.60;2.40;;;29.10;92.70;;;;;;5032862;28;20650;-75
2023/07/22 09:10:25;;;;;;;4.40;4.10;;;29.20;91.70;;;;;;5032472;28;20277;-75
2023/07/22 09:12:52;;;;;;;4.60;4.27;;;29.30;90.80;;;;;;5032639;28;20684;-75
2023/07/22 09:15:19;;;;;;;3.40;3.20;;;29.30;90.80;;;;;;5048460;28;20309;-77
2023/07/22 09:17:46;;;;;;;3.83;3.60;;;28.50;91.10;;;;;;5035514;28;20633;-77
2023/07/22 09:20:14;;;;;;;5.07;4.67;;;28.00;92.00;;;;;;5034861;28;20223;-77
2023/07/22 09:22:44;;;;;;;4.13;3.77;;;27.70;92.20;;;;;;5035370;28;20223;-77
2023/07/22 09:25:18;;;;;;;4.80;4.50;;;27.10;92.80;;;;;;5034609;28;20212;-77
2023/07/22 09:27:45;;;;;;;2.23;1.97;;;27.30;92.90;;;;;;5033725;28;20619;-77
2023/07/22 09:30:23;;;;;;;2.93;2.10;;;27.60;90.40;;;;;;5032528;28;20701;-77
2023/07/22 09:32:49;;;;;;;3.10;2.07;;;27.90;91.30;;;;;;5039019;28;20202;-77
2023/07/22 09:35:17;;;;;;;4.67;4.27;;;28.50;91.10;;;;;;5034210;28;20683;-77
2023/07/22 09:37:44;;;;;;;4.37;4.17;;;28.70;91.30;;;;;;5047551;28;20246;-77
2023/07/22 09:40:20;;;;;;;2.83;2.63;;;29.30;90.00;;;;;;5042120;28;20204;-77
2023/07/22 09:42:48;;;;;;;2.60;2.40;;;30.00;87.80;;;;;;5044920;28;20207;-77
2023/07/22 09:45:15;;;;;;;4.40;4.10;;;30.50;86.80;;;;;;5049855;28;20242;-77
2023/07/22 09:47:43;;;;;;;4.50;4.20;;;30.60;86.00;;;;;;5044581;28;20210;-77
2023/07/22 09:50:15;;;;;;;4.47;4.17;;;30.70;87.00;;;;;;5036520;28;20200;-77
2023/07/22 09:52:48;;;;;;;6.03;4.50;;;31.00;87.50;;;;;;5033576;28;20203;-77
2023/07/22 09:55:16;;;;;;;4.63;4.40;;;31.00;84.20;;;;;;5034392;28;20220;-77
2023/07/22 09:57:47;;;;;;;4.00;3.70;;;31.30;84.50;;;;;;5031861;28;20598;-75
2023/07/22 10:00:16;;;;;;;5.37;4.97;;;31.40;83.80;;;;;;5046582;28;20238;-75
2023/07/22 10:02:44;;;;;;;4.90;4.60;;;30.90;83.90;;;;;;5035904;28;20195;-78
2023/07/22 10:05:15;;;;;;;4.93;4.63;;;30.90;84.50;;;;;;5038209;28;20235;-78
2023/07/22 10:07:46;;;;;;;5.07;4.40;;;30.60;82.80;;;;;;5033605;28;20200;-78
2023/07/22 10:10:13;;;;;;;5.00;4.70;;;30.00;81.90;;;;;;5032614;28;20294;-77
2023/07/22 10:12:42;;;;;;;5.03;4.73;;;30.00;83.50;;;;;;5039335;28;20198;-77
2023/07/22 10:15:11;;;;;;;5.07;4.67;;;30.20;83.00;;;;;;5044365;28;20228;-77
2023/07/22 10:17:38;;;;;;;4.83;4.50;;;30.20;84.00;;;;;;5038807;28;20241;-77
2023/07/22 10:20:09;;;;;;;5.20;4.80;;;30.30;84.50;;;;;;5035603;28;20207;-77
2023/07/22 10:22:37;;;;;;;5.10;4.70;;;30.60;84.50;;;;;;5037273;28;20265;-75
2023/07/22 10:25:07;;;;;;;5.07;4.67;;;30.90;86.90;;;;;;5031354;28;20654;-74
2023/07/22 10:27:35;;;;;;;5.40;4.90;;;30.90;84.70;;;;;;5031312;28;20203;-75
2023/07/22 10:30:03;;;;;;;4.97;4.67;;;31.00;83.70;;;;;;5038970;28;20223;-75
2023/07/22 10:32:36;;;;;;;4.83;4.50;;;31.40;83.80;;;;;;5031176;28;20243;-75
2023/07/22 10:35:04;;;;;;;5.40;5.00;;;31.40;83.20;;;;;;5031332;28;20690;-75
2023/07/22 10:37:32;;;;;;;5.10;4.80;;;31.30;84.10;;;;;;5033600;28;20614;-77
2023/07/22 10:40:17;;;;;;;4.20;3.90;;;31.00;83.30;;;;;;5044939;28;20200;-77
2023/07/22 10:42:52;;;;;;;4.03;3.50;;;30.80;81.60;;;;;;5033231;28;20202;-75
2023/07/22 10:45:29;;;;;;;2.43;2.23;;;30.60;81.10;;;;;;5030939;28;20219;-75
2023/07/22 10:48:09;;;;;;;3.50;3.20;;;30.10;84.80;;;;;;5045623;28;20658;-77
2023/07/22 10:50:44;;;;;;;4.50;4.10;;;29.50;85.30;;;;;;5033102;28;20200;-77
2023/07/22 10:53:12;;;;;;;4.17;3.87;;;29.20;86.40;;;;;;5032447;28;20226;-77
2023/07/22 10:56:07;;;;;;;3.77;3.47;;;29.00;85.30;;;;;;5040674;28;20195;-76
2023/07/22 10:58:54;;;;;;;3.90;3.43;;;28.90;86.40;;;;;;5032765;28;20236;-76
2023/07/22 11:01:25;;;;;;;5.23;4.83;;;28.50;84.50;;;;;;5031658;28;20196;-77
2023/07/22 11:04:30;;;;;;;3.43;3.13;;;28.00;87.10;;;;;;5031914;28;20224;-77
2023/07/22 11:07:01;;;;;;;2.67;2.20;;;27.80;88.00;;;;;;5029359;28;20246;-83
2023/07/22 11:09:38;;;;;;;3.47;3.17;;;27.80;90.10;;;;;;5043549;28;20579;-81
2023/07/22 11:12:07;;;;;;;2.20;2.00;;;27.70;90.40;;;;;;5034324;28;20495;-80
2023/07/22 11:14:36;;;;;;;3.80;3.50;;;27.40;90.20;;;;;;5045874;28;20231;-80
2023/07/22 11:17:05;;;;;;;2.47;2.13;;;27.50;90.00;;;;;;5033296;28;20254;-80
2023/07/22 11:19:39;;;;;;;2.23;2.00;;;27.70;90.50;;;;;;5042329;28;20207;-80
2023/07/22 11:22:06;;;;;;;6.70;4.13;;;28.00;90.10;;;;;;5044803;28;20609;-80
2023/07/22 11:24:35;;;;;;;3.87;3.53;;;28.00;91.10;;;;;;5054155;28;20212;-84
2023/07/22 11:27:08;;;;;;;3.30;3.00;;;27.50;89.50;;;;;;5042203;28;20211;-81
2023/07/22 11:29:35;;;;;;;5.07;4.67;;;27.20;90.60;;;;;;5037676;28;20206;-82
2023/07/22 11:32:03;;;;;;;3.80;3.50;;;27.10;91.00;;;;;;5040001;28;20614;-83
2023/07/22 11:34:30;;;;;;;5.10;4.70;;;27.10;90.90;;;;;;5039632;28;20296;-82
2023/07/22 11:36:58;;;;;;;2.77;2.27;;;27.50;91.00;;;;;;5045656;28;20205;-77
2023/07/22 11:39:27;;;;;;;2.27;1.97;;;27.90;90.20;;;;;;5038608;28;20582;-77
2023/07/22 11:41:54;;;;;;;2.87;2.57;;;27.90;90.00;;;;;;5047061;28;20203;-77
2023/07/22 11:44:22;;;;;;;3.40;2.27;;;27.70;88.10;;;;;;5041499;28;20243;-77
2023/07/22 11:46:53;;;;;;;2.50;2.30;;;27.60;88.60;;;;;;5042047;28;20207;-76
2023/07/22 11:49:28;;;;;;;4.77;4.37;;;27.70;89.80;;;;;;5044112;28;20629;-76
2023/07/22 11:51:56;;;;;;;3.37;2.27;;;27.60;88.00;;;;;;5050220;28;20747;-77
2023/07/22 11:54:24;;;;;;;5.10;4.67;;;27.40;90.40;;;;;;5043658;28;20223;-76
2023/07/22 11:56:51;;;;;;;3.33;2.50;;;27.20;90.60;;;;;;5054820;28;20245;-76
2023/07/22 11:59:32;;;;;;;3.37;2.50;;;27.30;91.00;;;;;;5046503;28;20199;-77
2023/07/22 12:02:01;;;;;;;4.03;3.70;;;27.30;90.20;;;;;;5043852;28;20214;-77
2023/07/22 12:04:28;;;;;;;2.87;2.67;;;27.00;89.10;;;;;;5036323;28;20255;-77
2023/07/22 12:06:54;;;;;;;3.87;3.27;;;26.80;90.30;;;;;;5044289;28;20199;-76
2023/07/22 12:09:21;;;;;;;4.23;3.83;;;26.70;90.80;;;;;;5049785;28;20207;-81
2023/07/22 12:11:56;;;;;;;3.77;2.37;;;26.70;90.50;;;;;;5038860;28;20216;-81
2023/07/22 12:14:23;;;;;;;2.83;2.43;;;26.50;91.30;;;;;;5035065;28;20326;-80
2023/07/22 12:16:57;;;;;;;4.23;3.90;;;26.50;91.10;;;;;;5048515;28;20198;-77
2023/07/22 12:19:24;;;;;;;5.17;4.77;;;26.50;91.70;;;;;;5044210;28;20196;-76
2023/07/22 12:21:50;;;;;;;3.50;2.70;;;26.60;91.60;;;;;;5038602;28;20238;-77
2023/07/22 12:24:17;;;;;;;2.87;2.60;;;26.90;91.20;;;;;;5035721;28;20216;-77
2023/07/22 12:26:44;;;;;;;3.37;2.90;;;27.00;90.90;;;;;;5053949;28;20580;-77
2023/07/22 12:29:12;;;;;;;3.97;2.63;;;27.10;90.60;;;;;;5036821;28;20203;-77
2023/07/22 12:31:39;;;;;;;3.53;2.63;;;27.20;90.20;;;;;;5049720;28;20204;-77
2023/07/22 12:34:06;;;;;;;3.30;2.33;;;27.30;89.00;;;;;;5044174;28;20226;-77
2023/07/22 12:36:40;;;;;;;2.63;2.43;;;27.40;88.40;;;;;;5045409;28;20230;-80
2023/07/22 12:39:13;;;;;;;2.97;2.60;;;27.40;89.00;;;;;;5047656;28;20195;-84
2023/07/22 12:41:40;;;;;;;3.77;2.80;;;27.20;90.10;;;;;;5044386;28;20226;-81
2023/07/22 12:44:07;;;;;;;3.53;2.37;;;27.10;88.20;;;;;;5042885;28;20230;-81
2023/07/22 12:46:35;;;;;;;3.17;2.60;;;27.10;87.00;;;;;;5048940;28;20219;-81
2023/07/22 12:49:02;;;;;;;2.57;2.37;;;27.10;88.60;;;;;;5045157;28;20199;-81
2023/07/22 12:51:29;;;;;;;4.73;4.40;;;27.00;89.30;;;;;;5044920;28;20231;-80
2023/07/22 12:53:56;;;;;;;2.70;2.50;;;26.80;90.50;;;;;;5042623;28;20763;-80